sensor_id;sensor_type;location;lat;lon;timestamp;pressure;altitude;pressure_sealevel;temperature;humidity
54910;BME280;63189;51.240;9.964;2022-10-20T00:00:03;98565.59;;;6.26;87.56
54910;BME280;63189;51.240;9.964;2022-10-20T00:02:29;98568.19;;;6.26;87.72
54910;BME280;63189;51.240;9.964;2022-10-20T00:04:54;98562.13;;;6.27;87.82
54910;BME280;63189;51.240;9.964;2022-10-20T00:07:19;98565.59;;;6.23;87.27
54910;BME280;63189;51.240;9.964;2022-10-20T00:09:46;98558.69;;;6.19;87.74
54910;BME280;63189;51.240;9.964;2022-10-20T00:12:11;98560.41;;;6.20;87.94
54910;BME280;63189;51.240;9.964;2022-10-20T00:14:37;98558.69;;;6.19;88.13
54910;BME280;63189;51.240;9.964;2022-10-20T00:17:02;98556.13;;;6.17;88.10
54910;BME280;63189;51.240;9.964;2022-10-20T00:19:29;98554.38;;;6.21;88.11
54910;BME280;63189;51.240;9.964;2022-10-20T00:21:55;98556.09;;;6.20;87.97
54910;BME280;63189;51.240;9.964;2022-10-20T00:24:20;98553.53;;;6.19;88.06
54910;BME280;63189;51.240;9.964;2022-10-20T00:26:46;98557.81;;;6.23;88.28
54910;BME280;63189;51.240;9.964;2022-10-20T00:29:12;98538.84;;;6.15;88.54
54910;BME280;63189;51.240;9.964;2022-10-20T00:31:37;98544.03;;;6.19;88.21
54910;BME280;63189;51.240;9.964;2022-10-20T00:34:02;98550.91;;;6.22;88.69
54910;BME280;63189;51.240;9.964;2022-10-20T00:36:28;98538.00;;;6.16;88.67
54910;BME280;63189;51.240;9.964;2022-10-20T00:39:01;98550.94;;;6.20;88.91
54910;BME280;63189;51.240;9.964;2022-10-20T00:41:27;98548.34;;;6.19;88.62
54910;BME280;63189;51.240;9.964;2022-10-20T00:43:58;98538.88;;;6.16;88.72
54910;BME280;63189;51.240;9.964;2022-10-20T00:46:29;98538.88;;;6.16;88.99
54910;BME280;63189;51.240;9.964;2022-10-20T00:49:00;98525.91;;;6.12;88.99
54910;BME280;63189;51.240;9.964;2022-10-20T00:51:28;98529.38;;;6.11;88.57
54910;BME280;63189;51.240;9.964;2022-10-20T00:54:04;98526.81;;;6.09;89.13
54910;BME280;63189;51.240;9.964;2022-10-20T00:56:32;98536.28;;;6.12;89.10
54910;BME280;63189;51.240;9.964;2022-10-20T00:59:01;98542.34;;;6.09;89.21
54910;BME280;63189;51.240;9.964;2022-10-20T01:01:26;98527.69;;;6.06;89.51
54910;BME280;63189;51.240;9.964;2022-10-20T01:03:52;98518.19;;;6.02;89.59
54910;BME280;63189;51.240;9.964;2022-10-20T01:06:20;98522.50;;;6.06;89.66
54910;BME280;63189;51.240;9.964;2022-10-20T01:08:47;98520.78;;;6.05;89.96
54910;BME280;63189;51.240;9.964;2022-10-20T01:21:58;98513.91;;;5.91;90.74
54910;BME280;63189;51.240;9.964;2022-10-20T01:24:46;98507.00;;;5.91;90.58
54910;BME280;63189;51.240;9.964;2022-10-20T01:30:02;98502.69;;;5.83;90.90
54910;BME280;63189;51.240;9.964;2022-10-20T01:32:52;98495.81;;;5.78;91.24
54910;BME280;63189;51.240;9.964;2022-10-20T01:35:33;98483.72;;;5.73;91.23
54910;BME280;63189;51.240;9.964;2022-10-20T01:40:53;98477.69;;;5.72;91.13
54910;BME280;63189;51.240;9.964;2022-10-20T01:43:23;98468.25;;;5.67;91.07
54910;BME280;63189;51.240;9.964;2022-10-20T01:45:50;98478.59;;;5.64;90.84
54910;BME280;63189;51.240;9.964;2022-10-20T01:48:20;98479.47;;;5.60;90.76
54910;BME280;63189;51.240;9.964;2022-10-20T01:50:47;98478.63;;;5.53;91.31
54910;BME280;63189;51.240;9.964;2022-10-20T01:53:14;98470.00;;;5.51;92.06
54910;BME280;63189;51.240;9.964;2022-10-20T01:55:39;98467.41;;;5.48;91.54
54910;BME280;63189;51.240;9.964;2022-10-20T01:58:17;98445.03;;;5.38;92.04
54910;BME280;63189;51.240;9.964;2022-10-20T02:00:45;98454.50;;;5.40;91.95
54910;BME280;63189;51.240;9.964;2022-10-20T02:06:05;98450.19;;;5.38;92.32
54910;BME280;63189;51.240;9.964;2022-10-20T02:11:05;98439.00;;;5.37;91.79
54910;BME280;63189;51.240;9.964;2022-10-20T02:13:35;98432.97;;;5.37;91.96
54910;BME280;63189;51.240;9.964;2022-10-20T02:16:09;98434.72;;;5.33;92.36
54910;BME280;63189;51.240;9.964;2022-10-20T02:18:40;98429.53;;;5.30;93.13
54910;BME280;63189;51.240;9.964;2022-10-20T02:21:06;98433.81;;;5.31;93.32
54910;BME280;63189;51.240;9.964;2022-10-20T02:23:34;98417.47;;;5.26;93.29
54910;BME280;63189;51.240;9.964;2022-10-20T02:26:03;98417.50;;;5.25;93.45
54910;BME280;63189;51.240;9.964;2022-10-20T02:28:30;98405.41;;;5.19;93.59
54910;BME280;63189;51.240;9.964;2022-10-20T02:30:58;98403.72;;;5.15;94.17
54910;BME280;63189;51.240;9.964;2022-10-20T02:33:24;98407.16;;;5.17;94.09
54910;BME280;63189;51.240;9.964;2022-10-20T02:35:55;98401.97;;;5.17;94.35
54910;BME280;63189;51.240;9.964;2022-10-20T02:38:21;98392.50;;;5.10;94.41
54910;BME280;63189;51.240;9.964;2022-10-20T02:40:47;98393.41;;;5.12;94.36
54910;BME280;63189;51.240;9.964;2022-10-20T02:43:12;98398.56;;;5.06;94.37
54910;BME280;63189;51.240;9.964;2022-10-20T02:45:38;98400.28;;;5.04;94.30
54910;BME280;63189;51.240;9.964;2022-10-20T02:48:03;98408.91;;;5.01;95.02
54910;BME280;63189;51.240;9.964;2022-10-20T02:50:29;98410.63;;;4.98;95.21
54910;BME280;63189;51.240;9.964;2022-10-20T02:52:54;98413.19;;;4.99;95.14
54910;BME280;63189;51.240;9.964;2022-10-20T02:55:20;98414.94;;;4.97;95.29
54910;BME280;63189;51.240;9.964;2022-10-20T02:57:45;98406.34;;;4.93;95.17
54910;BME280;63189;51.240;9.964;2022-10-20T03:00:11;98415.81;;;4.95;95.02
54910;BME280;63189;51.240;9.964;2022-10-20T03:02:37;98394.25;;;4.88;95.41
54910;BME280;63189;51.240;9.964;2022-10-20T03:05:02;98395.16;;;4.91;94.86
54910;BME280;63189;51.240;9.964;2022-10-20T03:07:28;98400.31;;;4.85;94.95
54910;BME280;63189;51.240;9.964;2022-10-20T03:09:53;98406.34;;;4.81;95.40
54910;BME280;63189;51.240;9.964;2022-10-20T03:12:19;98400.31;;;4.82;95.28
54910;BME280;63189;51.240;9.964;2022-10-20T03:14:44;98398.59;;;4.81;96.30
54910;BME280;63189;51.240;9.964;2022-10-20T03:17:09;98398.56;;;4.77;96.73
54910;BME280;63189;51.240;9.964;2022-10-20T03:19:35;98390.84;;;4.75;96.79
54910;BME280;63189;51.240;9.964;2022-10-20T03:22:00;98402.03;;;4.77;96.50
54910;BME280;63189;51.240;9.964;2022-10-20T03:24:25;98396.00;;;4.78;96.60
54910;BME280;63189;51.240;9.964;2022-10-20T03:26:51;98389.97;;;4.76;97.25
54910;BME280;63189;51.240;9.964;2022-10-20T03:29:16;98379.63;;;4.76;97.34
54910;BME280;63189;51.240;9.964;2022-10-20T03:31:42;98377.06;;;4.76;97.19
54910;BME280;63189;51.240;9.964;2022-10-20T03:34:07;98379.63;;;4.76;96.84
54910;BME280;63189;51.240;9.964;2022-10-20T03:36:33;98383.94;;;4.76;96.59
54910;BME280;63189;51.240;9.964;2022-10-20T03:38:58;98376.19;;;4.68;97.03
54910;BME280;63189;51.240;9.964;2022-10-20T03:41:23;98365.84;;;4.68;97.06
54910;BME280;63189;51.240;9.964;2022-10-20T03:43:48;98368.47;;;4.70;97.22
54910;BME280;63189;51.240;9.964;2022-10-20T03:46:14;98365.00;;;4.68;96.94
54910;BME280;63189;51.240;9.964;2022-10-20T03:48:39;98369.31;;;4.64;97.74
54910;BME280;63189;51.240;9.964;2022-10-20T03:51:05;98354.69;;;4.60;97.64
54910;BME280;63189;51.240;9.964;2022-10-20T03:53:32;98352.97;;;4.63;98.11
54910;BME280;63189;51.240;9.964;2022-10-20T03:55:57;98356.41;;;4.59;97.57
54910;BME280;63189;51.240;9.964;2022-10-20T03:58:22;98347.81;;;4.59;98.17
54910;BME280;63189;51.240;9.964;2022-10-20T04:00:48;98348.66;;;4.55;97.95
54910;BME280;63189;51.240;9.964;2022-10-20T04:03:14;98343.50;;;4.56;97.88
54910;BME280;63189;51.240;9.964;2022-10-20T04:05:39;98337.47;;;4.54;98.11
54910;BME280;63189;51.240;9.964;2022-10-20T04:08:05;98334.03;;;4.55;98.34
54910;BME280;63189;51.240;9.964;2022-10-20T04:10:31;98334.88;;;4.56;98.31
54910;BME280;63189;51.240;9.964;2022-10-20T04:13:00;98339.19;;;4.55;97.64
54910;BME280;63189;51.240;9.964;2022-10-20T04:15:26;98324.56;;;4.53;97.63
54910;BME280;63189;51.240;9.964;2022-10-20T04:17:53;98330.59;;;4.52;98.11
54910;BME280;63189;51.240;9.964;2022-10-20T04:20:18;98324.56;;;4.47;98.43
54910;BME280;63189;51.240;9.964;2022-10-20T04:22:44;98323.69;;;4.46;98.37
54910;BME280;63189;51.240;9.964;2022-10-20T04:25:09;98334.91;;;4.50;98.94
54910;BME280;63189;51.240;9.964;2022-10-20T04:27:39;98319.41;;;4.44;99.09
54910;BME280;63189;51.240;9.964;2022-10-20T04:30:06;98329.72;;;4.44;99.36
54910;BME280;63189;51.240;9.964;2022-10-20T04:32:32;98314.22;;;4.34;99.38
54910;BME280;63189;51.240;9.964;2022-10-20T04:34:57;98297.91;;;4.31;99.53
54910;BME280;63189;51.240;9.964;2022-10-20T04:37:23;98322.00;;;4.41;99.53
54910;BME280;63189;51.240;9.964;2022-10-20T04:39:48;98314.25;;;4.41;99.41
54910;BME280;63189;51.240;9.964;2022-10-20T04:42:16;98310.81;;;4.32;99.64
54910;BME280;63189;51.240;9.964;2022-10-20T04:44:41;98305.63;;;4.35;99.37
54910;BME280;63189;51.240;9.964;2022-10-20T04:47:07;98321.13;;;4.35;99.19
54910;BME280;63189;51.240;9.964;2022-10-20T04:49:32;98312.53;;;4.30;99.50
54910;BME280;63189;51.240;9.964;2022-10-20T04:51:57;98307.38;;;4.27;99.42
54910;BME280;63189;51.240;9.964;2022-10-20T04:54:23;98301.34;;;4.19;99.99
54910;BME280;63189;51.240;9.964;2022-10-20T04:56:48;98285.00;;;4.19;100.00
54910;BME280;63189;51.240;9.964;2022-10-20T04:59:14;98284.13;;;4.24;99.78
54910;BME280;63189;51.240;9.964;2022-10-20T05:01:39;98286.69;;;4.24;99.74
54910;BME280;63189;51.240;9.964;2022-10-20T05:04:04;98287.56;;;4.23;99.57
54910;BME280;63189;51.240;9.964;2022-10-20T05:06:31;98284.97;;;4.26;99.49
54910;BME280;63189;51.240;9.964;2022-10-20T05:08:59;98275.53;;;4.22;99.71
54910;BME280;63189;51.240;9.964;2022-10-20T05:11:26;98268.63;;;4.17;100.00
54910;BME280;63189;51.240;9.964;2022-10-20T05:13:52;98262.59;;;4.16;100.00
54910;BME280;63189;51.240;9.964;2022-10-20T05:16:17;98260.91;;;4.12;100.00
54910;BME280;63189;51.240;9.964;2022-10-20T05:18:43;98251.44;;;4.13;100.00
54910;BME280;63189;51.240;9.964;2022-10-20T05:21:17;98263.47;;;4.14;100.00
54910;BME280;63189;51.240;9.964;2022-10-20T05:23:44;98266.06;;;4.06;100.00
54910;BME280;63189;51.240;9.964;2022-10-20T05:26:12;98272.97;;;4.07;100.00
54910;BME280;63189;51.240;9.964;2022-10-20T05:28:38;98273.78;;;4.06;100.00
54910;BME280;63189;51.240;9.964;2022-10-20T05:31:07;98276.38;;;4.06;100.00
54910;BME280;63189;51.240;9.964;2022-10-20T05:33:33;98274.66;;;4.02;100.00
54910;BME280;63189;51.240;9.964;2022-10-20T05:35:58;98264.34;;;3.99;100.00
54910;BME280;63189;51.240;9.964;2022-10-20T05:38:24;98260.91;;;4.01;100.00
54910;BME280;63189;51.240;9.964;2022-10-20T05:40:49;98255.75;;;4.00;100.00
54910;BME280;63189;51.240;9.964;2022-10-20T05:43:15;98257.47;;;4.01;100.00
54910;BME280;63189;51.240;9.964;2022-10-20T05:45:40;98254.91;;;3.98;100.00
54910;BME280;63189;51.240;9.964;2022-10-20T05:48:06;98251.44;;;3.97;100.00
54910;BME280;63189;51.240;9.964;2022-10-20T05:50:32;98241.09;;;3.96;100.00
54910;BME280;63189;51.240;9.964;2022-10-20T05:52:57;98248.00;;;3.95;100.00
54910;BME280;63189;51.240;9.964;2022-10-20T05:55:23;98251.44;;;3.94;100.00
54910;BME280;63189;51.240;9.964;2022-10-20T05:57:49;98241.97;;;3.89;100.00
54910;BME280;63189;51.240;9.964;2022-10-20T06:00:15;98245.41;;;3.85;100.00
54910;BME280;63189;51.240;9.964;2022-10-20T06:02:41;98243.69;;;3.85;100.00
54910;BME280;63189;51.240;9.964;2022-10-20T06:05:06;98248.88;;;3.90;100.00
54910;BME280;63189;51.240;9.964;2022-10-20T06:07:31;98248.88;;;3.87;100.00
54910;BME280;63189;51.240;9.964;2022-10-20T06:09:57;98230.78;;;3.82;100.00
54910;BME280;63189;51.240;9.964;2022-10-20T06:12:22;98245.41;;;3.82;100.00
54910;BME280;63189;51.240;9.964;2022-10-20T06:14:47;98239.38;;;3.81;100.00
54910;BME280;63189;51.240;9.964;2022-10-20T06:17:13;98246.25;;;3.82;100.00
54910;BME280;63189;51.240;9.964;2022-10-20T06:19:38;98255.75;;;3.88;100.00
54910;BME280;63189;51.240;9.964;2022-10-20T06:22:03;98239.41;;;3.80;100.00
54910;BME280;63189;51.240;9.964;2022-10-20T06:24:29;98247.16;;;3.89;100.00
54910;BME280;63189;51.240;9.964;2022-10-20T06:26:54;98243.69;;;3.93;100.00
54910;BME280;63189;51.240;9.964;2022-10-20T06:29:19;98233.38;;;3.93;100.00
54910;BME280;63189;51.240;9.964;2022-10-20T06:31:47;98229.94;;;3.91;100.00
54910;BME280;63189;51.240;9.964;2022-10-20T06:34:15;98221.34;;;3.98;100.00
54910;BME280;63189;51.240;9.964;2022-10-20T06:36:41;98230.81;;;4.02;100.00
54910;BME280;63189;51.240;9.964;2022-10-20T06:39:10;98221.34;;;4.07;100.00
54910;BME280;63189;51.240;9.964;2022-10-20T06:41:37;98220.47;;;4.16;100.00
54910;BME280;63189;51.240;9.964;2022-10-20T06:44:02;98219.63;;;4.20;100.00
54910;BME280;63189;51.240;9.964;2022-10-20T06:46:30;98227.38;;;4.20;100.00
54910;BME280;63189;51.240;9.964;2022-10-20T06:48:58;98224.78;;;4.18;100.00
54910;BME280;63189;51.240;9.964;2022-10-20T06:51:24;98216.16;;;4.24;100.00
54910;BME280;63189;51.240;9.964;2022-10-20T06:53:50;98217.88;;;4.26;100.00
54910;BME280;63189;51.240;9.964;2022-10-20T06:56:21;98212.72;;;4.31;100.00
54910;BME280;63189;51.240;9.964;2022-10-20T06:58:49;98215.31;;;4.39;100.00
54910;BME280;63189;51.240;9.964;2022-10-20T07:01:30;98211.84;;;4.41;100.00
54910;BME280;63189;51.240;9.964;2022-10-20T07:03:59;98210.09;;;4.48;100.00
54910;BME280;63189;51.240;9.964;2022-10-20T07:06:30;98213.53;;;4.56;100.00
54910;BME280;63189;51.240;9.964;2022-10-20T07:08:57;98211.81;;;4.59;100.00
54910;BME280;63189;51.240;9.964;2022-10-20T07:11:25;98214.38;;;4.61;100.00
54910;BME280;63189;51.240;9.964;2022-10-20T07:13:51;98212.63;;;4.64;100.00
54910;BME280;63189;51.240;9.964;2022-10-20T07:16:20;98195.41;;;4.65;100.00
54910;BME280;63189;51.240;9.964;2022-10-20T07:18:46;98193.69;;;4.67;99.86
54910;BME280;63189;51.240;9.964;2022-10-20T07:21:14;98195.41;;;4.71;99.39
54910;BME280;63189;51.240;9.964;2022-10-20T07:23:40;98176.44;;;4.75;99.87
54910;BME280;63189;51.240;9.964;2022-10-20T07:28:34;98186.72;;;4.87;99.40
54910;BME280;63189;51.240;9.964;2022-10-20T07:31:04;98181.56;;;4.92;98.79
54910;BME280;63189;51.240;9.964;2022-10-20T07:33:30;98191.84;;;5.03;98.97
54910;BME280;63189;51.240;9.964;2022-10-20T07:35:55;98180.59;;;5.11;98.87
54910;BME280;63189;51.240;9.964;2022-10-20T07:38:20;98184.00;;;5.21;98.40
54910;BME280;63189;51.240;9.964;2022-10-20T07:40:46;98180.47;;;5.34;97.45
54910;BME280;63189;51.240;9.964;2022-10-20T07:43:11;98188.13;;;5.53;96.88
54910;BME280;63189;51.240;9.964;2022-10-20T07:45:36;98204.38;;;5.68;95.87
54910;BME280;63189;51.240;9.964;2022-10-20T07:48:02;98195.69;;;5.77;95.93
54910;BME280;63189;51.240;9.964;2022-10-20T07:50:28;98193.00;;;5.89;94.48
54910;BME280;63189;51.240;9.964;2022-10-20T07:52:54;98198.06;;;6.07;94.67
54910;BME280;63189;51.240;9.964;2022-10-20T07:55:19;98199.59;;;6.30;94.49
54910;BME280;63189;51.240;9.964;2022-10-20T07:57:46;98202.88;;;6.47;93.35
54910;BME280;63189;51.240;9.964;2022-10-20T08:00:12;98204.47;;;6.60;92.07
54910;BME280;63189;51.240;9.964;2022-10-20T08:02:37;98200.06;;;6.65;91.25
54910;BME280;63189;51.240;9.964;2022-10-20T08:05:05;98195.63;;;6.78;89.94
54910;BME280;63189;51.240;9.964;2022-10-20T08:07:31;98197.97;;;6.98;88.78
54910;BME280;63189;51.240;9.964;2022-10-20T08:09:56;98187.47;;;7.10;88.50
54910;BME280;63189;51.240;9.964;2022-10-20T08:12:21;98186.59;;;7.11;87.94
54910;BME280;63189;51.240;9.964;2022-10-20T08:14:47;98192.38;;;7.32;87.13
54910;BME280;63189;51.240;9.964;2022-10-20T08:17:12;98186.06;;;7.48;86.14
54910;BME280;63189;51.240;9.964;2022-10-20T08:19:37;98183.91;;;7.77;84.58
54910;BME280;63189;51.240;9.964;2022-10-20T08:22:03;98179.25;;;7.98;84.18
54910;BME280;63189;51.240;9.964;2022-10-20T08:24:29;98183.56;;;7.97;84.57
54910;BME280;63189;51.240;9.964;2022-10-20T08:26:54;98170.66;;;7.94;84.49
54910;BME280;63189;51.240;9.964;2022-10-20T08:29:19;98172.25;;;8.01;83.96
54910;BME280;63189;51.240;9.964;2022-10-20T08:31:45;98171.28;;;8.07;83.67
54910;BME280;63189;51.240;9.964;2022-10-20T08:34:10;98157.19;;;8.23;85.05
54910;BME280;63189;51.240;9.964;2022-10-20T08:36:36;98163.00;;;8.37;84.53
54910;BME280;63189;51.240;9.964;2022-10-20T08:39:02;98168.88;;;8.47;82.86
54910;BME280;63189;51.240;9.964;2022-10-20T08:41:32;98156.56;;;8.57;82.60
54910;BME280;63189;51.240;9.964;2022-10-20T08:43:59;98165.97;;;8.62;82.30
54910;BME280;63189;51.240;9.964;2022-10-20T08:46:30;98154.69;;;8.63;82.80
54910;BME280;63189;51.240;9.964;2022-10-20T08:48:56;98158.94;;;8.69;82.31
54910;BME280;63189;51.240;9.964;2022-10-20T08:51:24;98164.06;;;8.72;81.80
54910;BME280;63189;51.240;9.964;2022-10-20T08:53:55;98163.00;;;8.82;81.35
54910;BME280;63189;51.240;9.964;2022-10-20T08:56:26;98150.69;;;8.90;81.81
54910;BME280;63189;51.240;9.964;2022-10-20T08:58:52;98141.81;;;9.01;81.05
54910;BME280;63189;51.240;9.964;2022-10-20T09:01:32;98145.69;;;9.21;80.86
54910;BME280;63189;51.240;9.964;2022-10-20T09:04:03;98142.22;;;9.22;80.38
54910;BME280;63189;51.240;9.964;2022-10-20T09:06:28;98147.38;;;9.24;80.31
54910;BME280;63189;51.240;9.964;2022-10-20T09:08:55;98149.78;;;9.33;81.68
54910;BME280;63189;51.240;9.964;2022-10-20T09:11:24;98139.25;;;9.38;81.65
54910;BME280;63189;51.240;9.964;2022-10-20T09:13:52;98137.53;;;9.38;81.05
54910;BME280;63189;51.240;9.964;2022-10-20T09:16:30;98142.56;;;9.44;80.29
54910;BME280;63189;51.240;9.964;2022-10-20T09:19:04;98139.03;;;9.48;80.94
54910;BME280;63189;51.240;9.964;2022-10-20T09:21:32;98134.53;;;9.55;81.16
54910;BME280;63189;51.240;9.964;2022-10-20T09:24:03;98130.94;;;9.61;80.87
54910;BME280;63189;51.240;9.964;2022-10-20T09:29:03;98123.53;;;9.78;82.02
54910;BME280;63189;51.240;9.964;2022-10-20T09:31:37;98114.25;;;9.69;80.51
54910;BME280;63189;51.240;9.964;2022-10-20T09:34:31;98119.25;;;9.77;82.10
54910;BME280;63189;51.240;9.964;2022-10-20T09:39:56;98120.50;;;9.96;80.95
54910;BME280;63189;51.240;9.964;2022-10-20T09:42:29;98111.78;;;10.31;79.58
54910;BME280;63189;51.240;9.964;2022-10-20T09:45:01;98116.28;;;10.57;78.78
54910;BME280;63189;51.240;9.964;2022-10-20T09:47:29;98111.63;;;10.68;79.25
54910;BME280;63189;51.240;9.964;2022-10-20T09:50:00;98095.81;;;10.75;76.58
54910;BME280;63189;51.240;9.964;2022-10-20T09:52:28;98095.72;;;10.78;77.99
54910;BME280;63189;51.240;9.964;2022-10-20T09:55:00;98073.31;;;10.70;76.78
54910;BME280;63189;51.240;9.964;2022-10-20T09:57:26;98076.66;;;10.76;78.02
54910;BME280;63189;51.240;9.964;2022-10-20T09:59:53;98072.19;;;10.79;77.92
54910;BME280;63189;51.240;9.964;2022-10-20T10:04:47;98075.94;;;11.28;78.25
54910;BME280;63189;51.240;9.964;2022-10-20T10:10:01;98059.69;;;11.73;73.48
54910;BME280;63189;51.240;9.964;2022-10-20T10:12:29;98061.19;;;11.81;75.40
54910;BME280;63189;51.240;9.964;2022-10-20T10:14:55;98050.81;;;11.77;72.24
54910;BME280;63189;51.240;9.964;2022-10-20T10:17:30;98037.94;;;11.99;74.14
54910;BME280;63189;51.240;9.964;2022-10-20T10:19:56;98032.06;;;12.17;74.99
54910;BME280;63189;51.240;9.964;2022-10-20T10:22:22;98033.22;;;12.33;72.93
54910;BME280;63189;51.240;9.964;2022-10-20T10:24:48;98043.03;;;12.27;71.59
54910;BME280;63189;51.240;9.964;2022-10-20T10:27:27;98035.25;;;12.25;72.28
54910;BME280;63189;51.240;9.964;2022-10-20T10:29:55;98033.34;;;12.05;72.11
54910;BME280;63189;51.240;9.964;2022-10-20T10:32:28;98035.78;;;11.85;71.97
54910;BME280;63189;51.240;9.964;2022-10-20T10:37:35;98010.75;;;11.79;74.14
54910;BME280;63189;51.240;9.964;2022-10-20T10:40:16;98003.78;;;11.78;74.23
54910;BME280;63189;51.240;9.964;2022-10-20T10:46:03;98006.25;;;11.83;75.22
54910;BME280;63189;51.240;9.964;2022-10-20T10:48:34;98014.16;;;11.81;76.20
54910;BME280;63189;51.240;9.964;2022-10-20T10:51:35;98014.16;;;11.81;76.12
54910;BME280;63189;51.240;9.964;2022-10-20T10:54:10;98017.84;;;11.74;74.66
54910;BME280;63189;51.240;9.964;2022-10-20T10:59:21;98005.56;;;11.76;73.97
54910;BME280;63189;51.240;9.964;2022-10-20T11:02:25;98004.50;;;11.83;74.37
54910;BME280;63189;51.240;9.964;2022-10-20T11:07:47;97977.84;;;11.99;74.67
54910;BME280;63189;51.240;9.964;2022-10-20T11:10:26;97978.47;;;12.05;76.31
54910;BME280;63189;51.240;9.964;2022-10-20T11:16:00;97967.50;;;12.19;74.82
54910;BME280;63189;51.240;9.964;2022-10-20T11:18:54;97964.84;;;12.21;73.34
54910;BME280;63189;51.240;9.964;2022-10-20T11:21:48;97977.75;;;12.25;73.35
54910;BME280;63189;51.240;9.964;2022-10-20T11:26:45;97970.59;;;12.30;72.44
54910;BME280;63189;51.240;9.964;2022-10-20T11:29:36;97977.53;;;12.31;73.00
54910;BME280;63189;51.240;9.964;2022-10-20T11:32:11;97974.97;;;12.30;74.15
54910;BME280;63189;51.240;9.964;2022-10-20T11:35:13;97974.97;;;12.30;74.17
54910;BME280;63189;51.240;9.964;2022-10-20T11:37:49;97966.25;;;12.29;72.74
54910;BME280;63189;51.240;9.964;2022-10-20T11:40:22;97960.94;;;12.32;72.79
54910;BME280;63189;51.240;9.964;2022-10-20T11:43:07;97942.16;;;12.45;73.98
54910;BME280;63189;51.240;9.964;2022-10-20T11:45:46;97937.25;;;12.59;74.01
54910;BME280;63189;51.240;9.964;2022-10-20T11:48:25;97942.91;;;12.70;73.70
54910;BME280;63189;51.240;9.964;2022-10-20T11:56:18;97943.03;;;12.67;71.85
54910;BME280;63189;51.240;9.964;2022-10-20T11:59:11;97945.88;;;12.61;72.34
54910;BME280;63189;51.240;9.964;2022-10-20T12:07:51;97928.38;;;12.39;72.88
54910;BME280;63189;51.240;9.964;2022-10-20T12:10:42;97920.50;;;12.41;73.06
54910;BME280;63189;51.240;9.964;2022-10-20T12:13:29;97918.06;;;12.36;73.12
54910;BME280;63189;51.240;9.964;2022-10-20T12:15:56;97910.94;;;12.40;74.35
54910;BME280;63189;51.240;9.964;2022-10-20T12:18:30;97903.72;;;12.47;73.10
54910;BME280;63189;51.240;9.964;2022-10-20T12:20:57;97896.56;;;12.52;72.57
54910;BME280;63189;51.240;9.964;2022-10-20T12:28:59;97894.38;;;12.85;74.29
54910;BME280;63189;51.240;9.964;2022-10-20T12:34:38;97898.41;;;12.92;71.90
54910;BME280;63189;51.240;9.964;2022-10-20T12:37:38;97912.47;;;12.89;71.28
54910;BME280;63189;51.240;9.964;2022-10-20T12:42:35;97902.28;;;12.83;72.28
54910;BME280;63189;51.240;9.964;2022-10-20T12:45:04;97908.88;;;12.92;72.61
54910;BME280;63189;51.240;9.964;2022-10-20T12:47:33;97924.16;;;12.81;72.30
54910;BME280;63189;51.240;9.964;2022-10-20T12:50:05;97926.00;;;12.79;72.21
54910;BME280;63189;51.240;9.964;2022-10-20T12:52:37;97922.22;;;12.64;70.64
54910;BME280;63189;51.240;9.964;2022-10-20T12:55:23;97898.91;;;12.58;71.22
54910;BME280;63189;51.240;9.964;2022-10-20T13:05:56;97914.63;;;12.58;73.02
54910;BME280;63189;51.240;9.964;2022-10-20T13:08:24;97926.00;;;12.57;73.26
54910;BME280;63189;51.240;9.964;2022-10-20T13:10:51;97926.13;;;12.54;72.52
54910;BME280;63189;51.240;9.964;2022-10-20T13:15:48;97927.25;;;12.47;73.19
54910;BME280;63189;51.240;9.964;2022-10-20T13:18:20;97920.53;;;12.39;74.04
54910;BME280;63189;51.240;9.964;2022-10-20T13:23:43;97912.81;;;12.36;73.43
54910;BME280;63189;51.240;9.964;2022-10-20T13:28:46;97910.09;;;12.39;74.60
54910;BME280;63189;51.240;9.964;2022-10-20T13:36:51;97851.41;;;12.25;74.95
54910;BME280;63189;51.240;9.964;2022-10-20T13:42:03;97829.16;;;12.14;75.12
54910;BME280;63189;51.240;9.964;2022-10-20T13:50:41;97850.13;;;12.13;75.65
54910;BME280;63189;51.240;9.964;2022-10-20T13:53:18;97865.03;;;12.11;76.13
54910;BME280;63189;51.240;9.964;2022-10-20T13:58:58;97887.63;;;12.12;76.33
54910;BME280;63189;51.240;9.964;2022-10-20T14:01:25;97895.47;;;12.12;76.31
54910;BME280;63189;51.240;9.964;2022-10-20T14:03:51;97900.69;;;12.12;76.47
54910;BME280;63189;51.240;9.964;2022-10-20T14:08:51;97900.50;;;12.17;76.74
54910;BME280;63189;51.240;9.964;2022-10-20T14:11:17;97904.88;;;12.16;76.53
54910;BME280;63189;51.240;9.964;2022-10-20T14:13:42;97904.22;;;12.11;76.66
54910;BME280;63189;51.240;9.964;2022-10-20T14:16:16;97910.19;;;12.14;77.61
54910;BME280;63189;51.240;9.964;2022-10-20T14:19:01;97899.91;;;12.10;76.50
54910;BME280;63189;51.240;9.964;2022-10-20T14:21:27;97880.84;;;12.06;76.74
54910;BME280;63189;51.240;9.964;2022-10-20T14:23:56;97892.22;;;12.05;78.02
54910;BME280;63189;51.240;9.964;2022-10-20T14:26:26;97896.47;;;12.08;78.14
54910;BME280;63189;51.240;9.964;2022-10-20T14:28:52;97887.84;;;12.06;77.74
54910;BME280;63189;51.240;9.964;2022-10-20T14:31:22;97894.72;;;12.08;77.17
54910;BME280;63189;51.240;9.964;2022-10-20T14:33:49;97904.22;;;12.11;77.93
54910;BME280;63189;51.240;9.964;2022-10-20T14:36:25;97894.56;;;12.13;77.40
54910;BME280;63189;51.240;9.964;2022-10-20T14:38:53;97891.94;;;12.13;77.76
54910;BME280;63189;51.240;9.964;2022-10-20T14:41:37;97891.03;;;12.14;78.47
54910;BME280;63189;51.240;9.964;2022-10-20T14:44:05;97883.97;;;12.16;78.42
54910;BME280;63189;51.240;9.964;2022-10-20T14:46:36;97882.28;;;12.15;78.01
54910;BME280;63189;51.240;9.964;2022-10-20T14:49:14;97868.28;;;12.16;78.40
54910;BME280;63189;51.240;9.964;2022-10-20T14:51:42;97866.59;;;12.15;77.95
54910;BME280;63189;51.240;9.964;2022-10-20T14:56:52;97863.19;;;12.13;78.47
54910;BME280;63189;51.240;9.964;2022-10-20T14:59:23;97860.66;;;12.11;78.48
54910;BME280;63189;51.240;9.964;2022-10-20T15:04:35;97858.25;;;12.05;78.60
54910;BME280;63189;51.240;9.964;2022-10-20T15:07:03;97866.88;;;12.07;79.32
54910;BME280;63189;51.240;9.964;2022-10-20T15:09:40;97862.75;;;12.02;79.24